createdAt,value
2017-11-08T00:01:55.229Z,92.92
2017-11-08T00:04:23.141Z,93.23
2017-11-08T00:06:51.049Z,93.27
2017-11-08T00:09:19.400Z,93.39
2017-11-08T00:11:47.294Z,93.43
2017-11-08T00:14:15.639Z,94.05
2017-11-08T00:16:43.551Z,93.97
2017-11-08T00:19:11.839Z,94.12
2017-11-08T00:21:45.291Z,94.46
2017-11-08T00:24:13.213Z,94.36
2017-11-08T00:26:41.114Z,94.49
2017-11-08T00:29:09.038Z,94.16
2017-11-08T00:31:37.671Z,93.74
2017-11-08T00:34:05.599Z,94.26
2017-11-08T00:36:33.540Z,94.07
2017-11-08T00:39:01.863Z,93.81
2017-11-08T00:41:29.864Z,93.37
2017-11-08T00:43:57.853Z,93.27
2017-11-08T00:46:26.216Z,93.08
2017-11-08T00:48:54.137Z,92.70
2017-11-08T00:51:22.056Z,92.24
2017-11-08T00:53:49.963Z,92.44
2017-11-08T00:56:17.872Z,92.33
2017-11-08T00:58:45.784Z,92.13
2017-11-08T01:01:14.090Z,92.33
2017-11-08T01:03:41.993Z,92.43
2017-11-08T01:06:09.897Z,92.74
2017-11-08T01:08:38.240Z,93.02
2017-11-08T01:11:06.141Z,93.15
2017-11-08T01:13:34.469Z,93.35
2017-11-08T01:16:02.374Z,93.49
2017-11-08T01:18:30.675Z,93.87
2017-11-08T01:20:58.581Z,93.80
2017-11-08T01:23:26.493Z,94.02
2017-11-08T01:25:54.792Z,94.11
2017-11-08T01:28:22.715Z,94.14
2017-11-08T01:30:50.630Z,94.85
2017-11-08T01:33:18.601Z,94.96
2017-11-08T01:35:46.521Z,95.07
2017-11-08T01:38:14.430Z,95.33
2017-11-08T01:40:44.147Z,95.41
2017-11-08T01:43:12.064Z,95.70
2017-11-08T01:45:41.770Z,95.85
2017-11-08T01:48:09.701Z,95.87
2017-11-08T01:50:39.345Z,96.06
2017-11-08T01:53:07.251Z,96.17
2017-11-08T01:55:38.315Z,95.96
2017-11-08T01:58:06.249Z,95.97
2017-11-08T02:00:34.569Z,96.28
2017-11-08T02:03:02.968Z,96.55
2017-11-08T02:05:30.964Z,96.64
2017-11-08T02:07:58.859Z,96.84
2017-11-08T02:10:26.776Z,96.67
2017-11-08T02:12:54.755Z,96.76
2017-11-08T02:15:22.668Z,97.00
2017-11-08T02:17:51.456Z,96.77
2017-11-08T02:20:19.380Z,96.52
2017-11-08T02:22:47.377Z,96.92
2017-11-08T02:25:15.708Z,96.73
2017-11-08T02:27:43.689Z,97.08
2017-11-08T02:30:11.771Z,97.34
2017-11-08T02:32:42.607Z,97.25
2017-11-08T02:35:10.554Z,97.18
2017-11-08T02:37:38.543Z,97.30
2017-11-08T02:40:06.517Z,97.13
2017-11-08T02:42:34.490Z,97.41
2017-11-08T02:45:02.418Z,97.11
2017-11-08T02:47:30.426Z,97.14
2017-11-08T02:49:58.341Z,97.15
2017-11-08T02:52:26.243Z,97.14
2017-11-08T02:54:59.659Z,97.24
2017-11-08T02:57:27.620Z,97.36
2017-11-08T02:59:55.524Z,97.48
2017-11-08T03:05:23.408Z,97.56
2017-11-08T03:07:51.745Z,97.20
2017-11-08T03:10:19.684Z,97.21
2017-11-08T03:12:47.688Z,97.14
2017-11-08T03:15:15.596Z,97.16
2017-11-08T03:17:43.520Z,97.21
2017-11-08T03:20:11.476Z,97.36
2017-11-08T03:22:39.398Z,96.97
2017-11-08T03:25:07.715Z,97.41
2017-11-08T03:27:35.716Z,97.31
2017-11-08T03:30:03.651Z,97.32
2017-11-08T03:32:31.665Z,97.49
2017-11-08T03:34:59.985Z,97.35
2017-11-08T03:37:27.889Z,97.46
2017-11-08T03:39:55.812Z,97.34
2017-11-08T03:42:23.831Z,97.44
2017-11-08T03:44:51.724Z,97.43
2017-11-08T03:47:20.068Z,97.43
2017-11-08T03:49:47.968Z,97.28
2017-11-08T03:52:16.271Z,97.12
2017-11-08T03:54:44.184Z,97.12
2017-11-08T03:57:12.092Z,97.08
2017-11-08T03:59:40.640Z,96.84
2017-11-08T04:02:08.535Z,97.07
2017-11-08T04:04:36.830Z,97.05
2017-11-08T04:07:04.739Z,96.82
2017-11-08T04:09:32.648Z,96.52
2017-11-08T04:12:00.972Z,96.33
2017-11-08T04:14:28.877Z,96.22
2017-11-08T04:16:56.825Z,95.98
2017-11-08T04:19:24.795Z,95.66
2017-11-08T04:21:52.721Z,95.36
2017-11-08T04:24:20.650Z,95.06
2017-11-08T04:26:48.949Z,94.81
2017-11-08T04:29:17.248Z,94.48
2017-11-08T04:31:45.257Z,94.68
2017-11-08T04:34:13.159Z,94.26
2017-11-08T04:36:41.511Z,94.21
2017-11-08T04:39:09.468Z,94.18
2017-11-08T04:41:37.380Z,94.10
2017-11-08T04:44:05.296Z,94.06
2017-11-08T04:46:33.281Z,93.70
2017-11-08T04:49:01.208Z,93.37
2017-11-08T04:51:29.217Z,93.25
2017-11-08T04:53:57.136Z,93.03
2017-11-08T04:56:25.053Z,92.57
2017-11-08T04:58:52.960Z,92.59
2017-11-08T05:01:20.892Z,92.42
2017-11-08T05:03:49.006Z,92.19
2017-11-08T05:06:16.915Z,92.17
2017-11-08T05:08:44.904Z,91.93
2017-11-08T05:11:12.807Z,91.66
2017-11-08T05:13:40.736Z,91.58
2017-11-08T05:16:08.657Z,91.47
2017-11-08T05:18:36.573Z,91.20
2017-11-08T05:21:04.482Z,90.74
2017-11-08T05:23:32.394Z,91.26
2017-11-08T05:26:00.308Z,91.35
2017-11-08T05:28:28.215Z,91.20
2017-11-08T05:30:56.161Z,91.12
2017-11-08T05:33:24.176Z,90.89
2017-11-08T05:35:52.083Z,90.73
2017-11-08T05:38:20.388Z,90.83
2017-11-08T05:40:48.293Z,91.01
2017-11-08T05:43:16.212Z,91.40
2017-11-08T05:45:44.232Z,91.44
2017-11-08T05:48:12.133Z,91.42
2017-11-08T05:50:40.449Z,91.84
2017-11-08T05:53:08.463Z,91.89
2017-11-08T05:55:36.753Z,92.19
2017-11-08T05:58:05.100Z,92.35
2017-11-08T06:00:33.001Z,92.58
2017-11-08T06:03:01.318Z,92.49
2017-11-08T06:05:29.310Z,92.77
2017-11-08T06:07:57.211Z,92.66
2017-11-08T06:10:25.516Z,92.49
2017-11-08T06:12:53.424Z,92.88
2017-11-08T06:15:21.347Z,92.90
2017-11-08T06:17:49.267Z,93.35
2017-11-08T06:20:17.173Z,93.54
2017-11-08T06:22:45.102Z,93.69
2017-11-08T06:25:13.008Z,93.88
2017-11-08T06:27:40.931Z,93.83
2017-11-08T06:30:08.839Z,93.72
2017-11-08T06:32:36.749Z,93.52
2017-11-08T06:35:04.740Z,93.34
2017-11-08T06:37:32.641Z,92.65
2017-11-08T06:40:00.981Z,91.91
2017-11-08T06:42:28.949Z,91.96
2017-11-08T06:44:56.848Z,91.93
2017-11-08T06:47:25.165Z,92.22
2017-11-08T06:49:53.169Z,92.52
2017-11-08T06:52:21.100Z,92.56
2017-11-08T06:54:49.104Z,92.37
2017-11-08T06:57:21.718Z,91.97
2017-11-08T06:59:49.624Z,91.53
2017-11-08T07:02:17.624Z,90.79
2017-11-08T07:04:45.552Z,89.51
2017-11-08T07:07:13.543Z,89.36
2017-11-08T07:09:41.473Z,88.21
2017-11-08T07:12:09.772Z,87.76
2017-11-08T07:14:37.677Z,86.05
2017-11-08T07:17:05.598Z,84.15
2017-11-08T07:19:33.605Z,84.29
2017-11-08T07:22:01.584Z,82.42
2017-11-08T07:24:29.476Z,81.83
2017-11-08T07:26:57.772Z,80.18
2017-11-08T09:40:17.580Z,68.13
2017-11-08T09:42:47.562Z,67.73
2017-11-08T09:45:15.498Z,67.48
2017-11-08T09:47:43.428Z,65.72
2017-11-08T09:50:11.363Z,64.48
2017-11-08T09:52:42.005Z,63.29
2017-11-08T09:55:09.924Z,64.12
2017-11-08T09:57:38.280Z,63.79
2017-11-08T10:00:06.235Z,64.21
2017-11-08T10:02:35.040Z,65.63
2017-11-08T10:05:02.966Z,65.81
2017-11-08T10:07:30.908Z,67.32
2017-11-08T10:09:58.954Z,69.11
2017-11-08T10:12:27.185Z,69.35
2017-11-08T10:14:55.094Z,68.88
2017-11-08T10:17:23.430Z,69.42
2017-11-08T10:19:51.345Z,69.45
2017-11-08T10:22:19.657Z,69.51
2017-11-08T10:24:47.564Z,69.61
2017-11-08T10:27:15.479Z,69.67
2017-11-08T10:29:43.414Z,68.77
2017-11-08T10:32:11.344Z,68.49
2017-11-08T10:34:39.261Z,68.20
2017-11-08T10:37:07.668Z,68.40
2017-11-08T10:39:35.575Z,68.70
2017-11-08T10:42:03.473Z,69.68
2017-11-08T10:44:31.512Z,68.48
2017-11-08T10:47:02.249Z,67.10
2017-11-08T10:49:36.511Z,66.23
2017-11-08T10:52:04.437Z,65.70
2017-11-08T10:54:32.767Z,66.47
2017-11-08T10:57:00.677Z,66.77
2017-11-08T10:59:29.006Z,67.11
2017-11-08T11:01:56.927Z,68.21
2017-11-08T11:04:25.233Z,67.54
2017-11-08T11:06:53.153Z,68.23
2017-11-08T11:09:22.848Z,67.99
2017-11-08T11:11:50.878Z,67.18
2017-11-08T11:14:18.896Z,67.12
2017-11-08T11:16:46.832Z,68.11
2017-11-08T11:19:21.426Z,68.24
2017-11-08T11:21:49.741Z,68.75
2017-11-08T11:24:17.741Z,69.12
2017-11-08T11:26:48.619Z,68.45
2017-11-08T11:29:16.545Z,69.48
2017-11-08T11:31:44.470Z,69.20
2017-11-08T11:34:12.397Z,69.84
2017-11-08T11:36:40.736Z,69.99
2017-11-08T11:39:12.745Z,70.51
2017-11-08T11:41:41.074Z,70.95
2017-11-08T11:44:08.994Z,70.82
2017-11-08T11:46:38.210Z,70.43
2017-11-08T11:49:11.070Z,70.57
2017-11-08T11:51:39.084Z,69.87
2017-11-08T11:54:07.103Z,70.18
2017-11-08T11:56:35.050Z,69.94
2017-11-08T11:59:02.982Z,71.09
2017-11-08T12:01:30.902Z,71.40
2017-11-08T12:03:58.805Z,71.58
2017-11-08T12:06:27.141Z,71.60
2017-11-08T12:08:55.061Z,72.08
2017-11-08T12:11:22.973Z,72.31
2017-11-08T12:13:50.959Z,72.29
2017-11-08T12:16:18.878Z,72.37
2017-11-08T12:18:46.791Z,72.83
2017-11-08T12:21:14.706Z,72.67
2017-11-08T12:23:42.620Z,72.61
2017-11-08T12:26:10.555Z,72.21
2017-11-08T12:28:44.506Z,71.98
2017-11-08T12:31:12.430Z,71.62
2017-11-08T12:33:40.450Z,71.75
2017-11-08T12:36:08.387Z,71.68
2017-11-08T12:38:38.133Z,71.72
2017-11-08T12:41:06.062Z,71.12
2017-11-08T12:43:33.976Z,71.42
2017-11-08T12:46:01.909Z,71.45
2017-11-08T12:48:29.821Z,71.41
2017-11-08T12:50:58.254Z,70.92
2017-11-08T12:53:26.165Z,71.63
2017-11-08T12:55:54.477Z,72.30
2017-11-08T12:58:22.398Z,72.02
2017-11-08T13:00:50.322Z,72.27
2017-11-08T13:03:18.334Z,72.11
2017-11-08T13:05:52.061Z,72.17
2017-11-08T13:08:20.366Z,72.24
2017-11-08T13:10:53.839Z,71.84
2017-11-08T13:13:22.169Z,71.87
2017-11-08T13:15:50.165Z,71.42
2017-11-08T13:18:18.085Z,71.17
2017-11-08T13:20:46.055Z,70.73
2017-11-08T13:23:13.990Z,70.69
2017-11-08T13:25:42.310Z,70.76
2017-11-08T13:28:10.234Z,71.20
2017-11-08T13:30:38.585Z,70.91
2017-11-08T13:33:06.517Z,71.29
2017-11-08T13:35:34.445Z,71.53
2017-11-08T13:38:02.389Z,71.69
2017-11-08T13:40:32.269Z,71.85
2017-11-08T13:43:00.209Z,72.05
2017-11-08T13:45:28.537Z,72.54
2017-11-08T13:47:56.537Z,72.20
2017-11-08T13:50:24.498Z,72.03
2017-11-08T13:52:52.406Z,72.55
2017-11-08T13:55:20.330Z,72.92
2017-11-08T13:57:48.302Z,73.52
2017-11-08T14:00:16.230Z,73.58
2017-11-08T14:02:44.138Z,73.88
2017-11-08T14:05:12.108Z,74.46
2017-11-08T14:07:40.025Z,74.57
2017-11-08T14:10:07.945Z,74.42
2017-11-08T14:12:35.853Z,74.77
2017-11-08T14:15:03.760Z,75.69
2017-11-08T14:17:31.746Z,75.89
2017-11-08T14:19:59.652Z,75.58
2017-11-08T14:22:27.967Z,75.29
2017-11-08T14:24:55.915Z,75.64
2017-11-08T14:27:23.860Z,75.86
2017-11-08T14:29:51.781Z,76.16
2017-11-08T14:32:19.694Z,76.41
2017-11-08T14:34:47.988Z,76.58
2017-11-08T14:37:15.913Z,76.54
2017-11-08T14:39:43.814Z,76.79
2017-11-08T14:42:21.222Z,77.20
2017-11-08T14:44:49.140Z,77.42
2017-11-08T14:47:17.054Z,77.50
2017-11-08T14:49:44.987Z,77.74
2017-11-08T14:52:13.311Z,77.72
2017-11-08T14:54:41.220Z,77.26
2017-11-08T14:57:09.132Z,77.45
2017-11-08T14:59:37.029Z,77.40
2017-11-08T15:02:05.047Z,77.46
2017-11-08T15:04:33.358Z,78.23
2017-11-08T15:07:01.269Z,78.09
2017-11-08T15:09:29.168Z,78.39
2017-11-08T15:11:58.344Z,78.69
2017-11-08T15:14:27.013Z,78.88
2017-11-08T15:16:54.932Z,79.06
2017-11-08T15:19:22.850Z,79.17
2017-11-08T15:21:51.201Z,79.14
2017-11-08T15:24:19.107Z,79.50
2017-11-08T15:26:47.018Z,79.61
2017-11-08T15:29:14.926Z,79.40
2017-11-08T15:31:42.845Z,79.23
2017-11-08T15:34:10.754Z,78.92
2017-11-08T15:36:38.685Z,79.26
2017-11-08T15:39:06.705Z,79.32
2017-11-08T15:41:34.617Z,79.22
2017-11-08T15:44:02.971Z,80.04
2017-11-08T15:46:31.532Z,80.05
2017-11-08T15:49:03.194Z,80.31
2017-11-08T15:51:31.248Z,80.56
2017-11-08T15:53:59.160Z,80.43
2017-11-08T15:56:27.475Z,80.01
2017-11-08T15:58:55.403Z,80.29
2017-11-08T16:01:23.718Z,80.31
2017-11-08T16:03:51.628Z,80.43
2017-11-08T16:06:19.553Z,80.33
2017-11-08T16:08:53.021Z,80.47
2017-11-08T16:11:21.395Z,80.36
2017-11-08T16:13:49.710Z,80.55
2017-11-08T16:16:17.718Z,80.69
2017-11-08T16:18:45.629Z,80.68
2017-11-08T16:21:13.557Z,80.41
2017-11-08T16:23:44.076Z,80.58
2017-11-08T16:26:11.993Z,80.75
2017-11-08T16:28:39.898Z,80.58
2017-11-08T16:31:07.814Z,80.13
2017-11-08T16:33:36.121Z,80.30
2017-11-08T16:36:04.029Z,80.29
2017-11-08T16:38:32.003Z,80.56
2017-11-08T16:40:59.917Z,80.48
2017-11-08T16:43:27.809Z,80.47
2017-11-08T16:45:55.749Z,79.93
2017-11-08T16:48:23.645Z,80.21
2017-11-08T16:50:51.645Z,79.98
2017-11-08T16:53:19.562Z,79.97
2017-11-08T16:55:47.583Z,79.91
2017-11-08T16:58:15.494Z,80.10
2017-11-08T17:00:43.509Z,80.27
2017-11-08T17:03:11.513Z,80.49
2017-11-08T17:05:39.836Z,80.72
2017-11-08T17:08:07.842Z,80.64
2017-11-08T17:10:35.895Z,80.84
2017-11-08T17:13:03.814Z,81.15
2017-11-08T17:15:31.729Z,81.18
2017-11-08T17:17:59.638Z,80.95
2017-11-08T17:20:27.946Z,81.29
2017-11-08T17:22:55.868Z,81.12
2017-11-08T17:25:23.773Z,81.33
2017-11-08T17:27:51.685Z,81.58
2017-11-08T17:30:19.601Z,81.22
2017-11-08T17:32:47.515Z,81.33
2017-11-08T17:35:15.435Z,81.53
2017-11-08T17:37:43.368Z,81.32
2017-11-08T17:40:11.290Z,81.21
2017-11-08T17:42:39.212Z,81.04
2017-11-08T17:45:07.590Z,80.88
2017-11-08T17:47:35.948Z,81.02
2017-11-08T17:50:03.853Z,80.86
2017-11-08T17:52:32.158Z,80.86
2017-11-08T17:55:00.053Z,81.07
2017-11-08T17:57:27.995Z,81.50
2017-11-08T17:59:55.893Z,81.60
2017-11-08T18:02:23.864Z,81.58
2017-11-08T18:04:51.839Z,81.58
2017-11-08T18:07:19.806Z,81.59
2017-11-08T18:09:47.771Z,81.33
2017-11-08T18:12:15.739Z,81.19
2017-11-08T18:14:43.650Z,80.87
2017-11-08T18:17:11.553Z,81.72
2017-11-08T18:19:39.462Z,82.22
2017-11-08T18:22:07.369Z,82.31
2017-11-08T18:24:35.284Z,82.20
2017-11-08T18:27:03.199Z,82.29
2017-11-08T18:29:31.163Z,81.71
2017-11-08T18:31:59.065Z,81.25
2017-11-08T18:34:27.044Z,81.55
2017-11-08T18:36:55.022Z,81.66
2017-11-08T18:39:22.954Z,81.47
2017-11-08T18:41:50.858Z,81.48
2017-11-08T18:44:18.770Z,81.84
2017-11-08T18:46:46.691Z,82.46
2017-11-08T18:49:14.598Z,82.41
2017-11-08T18:51:42.513Z,82.47
2017-11-08T18:54:10.420Z,82.37
2017-11-08T18:56:38.762Z,82.71
2017-11-08T18:59:06.677Z,82.83
2017-11-08T19:01:34.997Z,82.27
2017-11-08T19:04:02.893Z,82.54
2017-11-08T19:06:30.817Z,81.83
2017-11-08T19:08:58.709Z,81.88
2017-11-08T19:11:26.638Z,82.01
2017-11-08T19:13:54.555Z,81.81
2017-11-08T19:16:22.626Z,81.96
2017-11-08T19:18:50.538Z,81.75
2017-11-08T19:21:18.465Z,81.74
2017-11-08T19:23:46.372Z,81.59
2017-11-08T19:26:14.297Z,81.48
2017-11-08T19:28:42.209Z,81.42
2017-11-08T19:31:10.136Z,81.29
2017-11-08T19:33:38.107Z,81.83
2017-11-08T19:36:06.013Z,81.81
2017-11-08T19:38:33.926Z,81.93
2017-11-08T19:41:02.447Z,81.28
2017-11-08T19:43:30.761Z,82.02
2017-11-08T19:45:58.767Z,82.41
2017-11-08T19:48:26.737Z,82.52
2017-11-08T19:50:54.663Z,82.79
2017-11-08T19:53:22.587Z,82.44
2017-11-08T19:55:50.541Z,82.73
2017-11-08T19:58:18.447Z,82.61
2017-11-08T20:00:46.759Z,82.70
2017-11-08T20:03:14.653Z,82.59
2017-11-08T20:05:42.613Z,83.05
2017-11-08T20:08:10.531Z,82.87
2017-11-08T20:10:38.453Z,82.63
2017-11-08T20:13:06.429Z,82.88
2017-11-08T20:15:34.353Z,82.89
2017-11-08T20:18:02.254Z,82.45
2017-11-08T20:20:30.241Z,82.20
2017-11-08T20:22:58.150Z,82.17
2017-11-08T20:25:26.976Z,81.64
2017-11-08T20:27:54.885Z,81.53
2017-11-08T20:30:23.241Z,81.87
2017-11-08T20:32:51.212Z,81.89
2017-11-08T20:35:19.221Z,82.45
2017-11-08T20:37:47.141Z,82.38
2017-11-08T20:40:15.093Z,82.04
2017-11-08T20:42:42.999Z,82.17
2017-11-08T20:45:11.901Z,81.73
2017-11-08T20:47:40.211Z,81.93
2017-11-08T20:50:08.131Z,82.25
2017-11-08T20:52:36.034Z,82.68
2017-11-08T20:55:03.954Z,83.06
2017-11-08T20:57:31.869Z,83.23
2017-11-08T20:59:59.761Z,83.26
2017-11-08T21:02:27.667Z,82.72
2017-11-08T21:04:55.576Z,82.99
2017-11-08T21:07:23.494Z,82.31
2017-11-08T21:09:51.465Z,81.94
2017-11-08T21:12:19.384Z,82.33
2017-11-08T21:14:47.303Z,82.30
2017-11-08T21:17:15.209Z,82.52
2017-11-08T21:19:43.123Z,82.04
2017-11-08T21:22:11.113Z,82.85
2017-11-08T21:24:39.437Z,82.80
2017-11-08T21:27:07.347Z,82.97
2017-11-08T21:29:35.258Z,83.14
2017-11-08T21:32:03.175Z,82.84
2017-11-08T21:34:31.077Z,82.92
2017-11-08T21:36:59.430Z,82.44
2017-11-08T21:39:27.356Z,82.92
2017-11-08T21:41:55.366Z,82.78
2017-11-08T21:44:23.277Z,82.91
2017-11-08T21:46:51.201Z,82.62
2017-11-08T21:49:19.111Z,82.57
2017-11-08T21:51:47.041Z,82.79
2017-11-08T21:54:14.966Z,82.50
2017-11-08T21:56:42.873Z,82.45
2017-11-08T21:59:10.791Z,82.28
2017-11-08T22:01:38.693Z,82.78
2017-11-08T22:04:06.593Z,83.06
2017-11-08T22:06:34.970Z,83.15
2017-11-08T22:09:03.278Z,82.98
2017-11-08T22:11:31.198Z,82.93
2017-11-08T22:13:59.111Z,82.76
2017-11-08T22:19:01.250Z,82.46
2017-11-08T22:21:29.170Z,82.14
2017-11-08T22:23:57.074Z,82.42
2017-11-08T22:26:25.062Z,82.91
2017-11-08T22:28:53.008Z,83.08
2017-11-08T22:31:20.936Z,82.58
2017-11-08T22:33:48.843Z,82.21
2017-11-08T22:36:16.752Z,81.74
2017-11-08T22:38:45.060Z,82.23
2017-11-08T22:41:12.982Z,82.51
2017-11-08T22:43:40.962Z,82.45
2017-11-08T22:46:09.309Z,82.58
2017-11-08T22:48:37.233Z,83.01
2017-11-08T22:51:05.157Z,83.12
2017-11-08T22:53:33.067Z,83.22
2017-11-08T22:56:00.990Z,83.38
2017-11-08T22:58:28.898Z,83.26
2017-11-08T23:00:56.835Z,83.58
2017-11-08T23:03:24.754Z,83.44
2017-11-08T23:05:52.716Z,83.45
2017-11-08T23:08:20.637Z,83.29
2017-11-08T23:10:48.636Z,83.87
2017-11-08T23:13:16.977Z,83.84
2017-11-08T23:15:44.910Z,83.59
2017-11-08T23:18:12.827Z,83.27
2017-11-08T23:20:40.739Z,83.10
2017-11-08T23:23:08.641Z,83.18
2017-11-08T23:25:36.564Z,83.46
2017-11-08T23:28:04.475Z,83.56
2017-11-08T23:30:32.407Z,83.57
2017-11-08T23:33:00.521Z,83.45
2017-11-08T23:35:28.440Z,83.08
2017-11-08T23:37:56.353Z,82.80
2017-11-08T23:40:24.261Z,82.32
2017-11-08T23:42:52.157Z,82.31
2017-11-08T23:45:20.227Z,82.81
2017-11-08T23:47:48.129Z,83.06
2017-11-08T23:50:16.078Z,83.47
2017-11-08T23:52:43.982Z,83.35
2017-11-08T23:55:12.297Z,83.30
2017-11-08T23:57:40.212Z,83.38
